sensor_id;sensor_type;location;lat;lon;timestamp;temperature;humidity
32769;DHT22;23049;54.304;8.826;2023-11-19T00:01:34;6.90;99.90
32769;DHT22;23049;54.304;8.826;2023-11-19T00:04:00;6.90;99.90
32769;DHT22;23049;54.304;8.826;2023-11-19T00:06:25;6.90;99.90
32769;DHT22;23049;54.304;8.826;2023-11-19T00:08:51;6.90;99.90
32769;DHT22;23049;54.304;8.826;2023-11-19T00:11:17;6.90;99.90
32769;DHT22;23049;54.304;8.826;2023-11-19T00:13:42;6.90;99.90
32769;DHT22;23049;54.304;8.826;2023-11-19T00:16:08;6.90;99.90
32769;DHT22;23049;54.304;8.826;2023-11-19T00:18:35;6.90;99.90
32769;DHT22;23049;54.304;8.826;2023-11-19T00:21:01;6.90;99.90
32769;DHT22;23049;54.304;8.826;2023-11-19T00:23:27;6.90;99.90
32769;DHT22;23049;54.304;8.826;2023-11-19T00:25:53;6.90;99.90
32769;DHT22;23049;54.304;8.826;2023-11-19T00:28:18;7.00;99.90
32769;DHT22;23049;54.304;8.826;2023-11-19T00:30:44;6.90;99.90
32769;DHT22;23049;54.304;8.826;2023-11-19T00:33:09;6.90;99.90
32769;DHT22;23049;54.304;8.826;2023-11-19T00:35:35;6.90;99.90
32769;DHT22;23049;54.304;8.826;2023-11-19T00:38:01;7.00;99.90
32769;DHT22;23049;54.304;8.826;2023-11-19T00:40:28;7.00;99.90
32769;DHT22;23049;54.304;8.826;2023-11-19T00:42:53;7.00;99.90
32769;DHT22;23049;54.304;8.826;2023-11-19T00:45:19;7.00;99.90
32769;DHT22;23049;54.304;8.826;2023-11-19T00:47:45;7.00;99.90
32769;DHT22;23049;54.304;8.826;2023-11-19T00:50:10;7.00;99.90
32769;DHT22;23049;54.304;8.826;2023-11-19T00:52:36;7.00;99.90
32769;DHT22;23049;54.304;8.826;2023-11-19T00:55:03;7.00;99.90
32769;DHT22;23049;54.304;8.826;2023-11-19T00:57:29;7.10;99.90
32769;DHT22;23049;54.304;8.826;2023-11-19T00:59:55;7.10;99.90
32769;DHT22;23049;54.304;8.826;2023-11-19T01:02:21;7.10;99.90
32769;DHT22;23049;54.304;8.826;2023-11-19T01:04:46;7.00;99.90
32769;DHT22;23049;54.304;8.826;2023-11-19T01:07:12;7.10;99.90
32769;DHT22;23049;54.304;8.826;2023-11-19T01:09:38;7.10;99.90
32769;DHT22;23049;54.304;8.826;2023-11-19T01:12:04;7.10;99.90
32769;DHT22;23049;54.304;8.826;2023-11-19T01:14:29;7.10;99.90
32769;DHT22;23049;54.304;8.826;2023-11-19T01:16:55;7.10;99.90
32769;DHT22;23049;54.304;8.826;2023-11-19T01:19:21;7.10;99.90
32769;DHT22;23049;54.304;8.826;2023-11-19T01:21:47;7.10;99.90
32769;DHT22;23049;54.304;8.826;2023-11-19T01:24:13;7.10;99.90
32769;DHT22;23049;54.304;8.826;2023-11-19T01:26:39;7.20;99.90
32769;DHT22;23049;54.304;8.826;2023-11-19T01:29:13;7.20;99.90
32769;DHT22;23049;54.304;8.826;2023-11-19T01:31:42;7.10;99.90
32769;DHT22;23049;54.304;8.826;2023-11-19T01:34:08;7.10;99.90
32769;DHT22;23049;54.304;8.826;2023-11-19T01:36:33;7.20;99.90
32769;DHT22;23049;54.304;8.826;2023-11-19T01:38:59;7.10;99.90
32769;DHT22;23049;54.304;8.826;2023-11-19T01:41:24;7.10;99.90
32769;DHT22;23049;54.304;8.826;2023-11-19T01:43:50;7.10;99.90
32769;DHT22;23049;54.304;8.826;2023-11-19T01:46:15;7.10;99.90
32769;DHT22;23049;54.304;8.826;2023-11-19T01:48:42;7.20;99.90
32769;DHT22;23049;54.304;8.826;2023-11-19T01:51:08;7.20;99.90
32769;DHT22;23049;54.304;8.826;2023-11-19T01:53:34;7.20;99.90
32769;DHT22;23049;54.304;8.826;2023-11-19T01:56:02;7.20;99.90
32769;DHT22;23049;54.304;8.826;2023-11-19T01:58:27;7.20;99.90
32769;DHT22;23049;54.304;8.826;2023-11-19T02:00:55;7.20;99.90
32769;DHT22;23049;54.304;8.826;2023-11-19T02:03:21;7.20;99.90
32769;DHT22;23049;54.304;8.826;2023-11-19T02:05:47;7.20;99.90
32769;DHT22;23049;54.304;8.826;2023-11-19T02:08:14;7.20;99.90
32769;DHT22;23049;54.304;8.826;2023-11-19T02:10:39;7.20;99.90
32769;DHT22;23049;54.304;8.826;2023-11-19T02:13:05;7.20;99.90
32769;DHT22;23049;54.304;8.826;2023-11-19T02:15:32;7.30;99.90
32769;DHT22;23049;54.304;8.826;2023-11-19T02:18:16;7.20;99.90
32769;DHT22;23049;54.304;8.826;2023-11-19T02:20:42;7.30;99.90
32769;DHT22;23049;54.304;8.826;2023-11-19T02:23:07;7.20;99.90
32769;DHT22;23049;54.304;8.826;2023-11-19T02:25:33;7.30;99.90
32769;DHT22;23049;54.304;8.826;2023-11-19T02:27:59;7.20;99.90
32769;DHT22;23049;54.304;8.826;2023-11-19T02:30:25;7.20;99.90
32769;DHT22;23049;54.304;8.826;2023-11-19T02:32:58;7.30;99.90
32769;DHT22;23049;54.304;8.826;2023-11-19T02:35:26;7.30;99.90
32769;DHT22;23049;54.304;8.826;2023-11-19T02:37:51;7.30;99.90
32769;DHT22;23049;54.304;8.826;2023-11-19T02:40:17;7.40;99.90
32769;DHT22;23049;54.304;8.826;2023-11-19T02:42:43;7.40;99.90
32769;DHT22;23049;54.304;8.826;2023-11-19T02:45:09;7.40;99.90
32769;DHT22;23049;54.304;8.826;2023-11-19T02:47:40;7.40;99.90
32769;DHT22;23049;54.304;8.826;2023-11-19T02:50:06;7.40;99.90
32769;DHT22;23049;54.304;8.826;2023-11-19T02:52:39;7.40;99.90
32769;DHT22;23049;54.304;8.826;2023-11-19T02:55:04;7.40;99.90
32769;DHT22;23049;54.304;8.826;2023-11-19T02:57:34;7.50;99.90
32769;DHT22;23049;54.304;8.826;2023-11-19T03:00:00;7.50;99.90
32769;DHT22;23049;54.304;8.826;2023-11-19T03:02:25;7.50;99.90
32769;DHT22;23049;54.304;8.826;2023-11-19T03:04:59;7.60;99.90
32769;DHT22;23049;54.304;8.826;2023-11-19T03:07:25;7.60;99.90
32769;DHT22;23049;54.304;8.826;2023-11-19T03:09:50;7.60;99.90
32769;DHT22;23049;54.304;8.826;2023-11-19T03:12:16;7.60;99.90
32769;DHT22;23049;54.304;8.826;2023-11-19T03:14:41;7.70;99.90
32769;DHT22;23049;54.304;8.826;2023-11-19T03:17:07;7.70;99.90
32769;DHT22;23049;54.304;8.826;2023-11-19T03:19:35;7.70;99.90
32769;DHT22;23049;54.304;8.826;2023-11-19T03:22:01;7.70;99.90
32769;DHT22;23049;54.304;8.826;2023-11-19T03:24:26;7.70;99.90
32769;DHT22;23049;54.304;8.826;2023-11-19T03:26:52;7.70;99.90
32769;DHT22;23049;54.304;8.826;2023-11-19T03:29:17;7.70;99.90
32769;DHT22;23049;54.304;8.826;2023-11-19T03:31:43;7.70;99.90
32769;DHT22;23049;54.304;8.826;2023-11-19T03:34:10;7.70;99.90
32769;DHT22;23049;54.304;8.826;2023-11-19T03:36:35;7.80;99.90
32769;DHT22;23049;54.304;8.826;2023-11-19T03:39:01;7.80;99.90
32769;DHT22;23049;54.304;8.826;2023-11-19T03:41:26;7.80;99.90
32769;DHT22;23049;54.304;8.826;2023-11-19T03:43:52;7.90;99.90
32769;DHT22;23049;54.304;8.826;2023-11-19T03:46:21;7.90;99.90
32769;DHT22;23049;54.304;8.826;2023-11-19T03:48:47;8.00;99.90
32769;DHT22;23049;54.304;8.826;2023-11-19T03:51:13;8.00;99.90
32769;DHT22;23049;54.304;8.826;2023-11-19T03:53:42;8.10;99.90
32769;DHT22;23049;54.304;8.826;2023-11-19T03:56:08;8.00;99.90
32769;DHT22;23049;54.304;8.826;2023-11-19T03:58:34;8.00;99.90
32769;DHT22;23049;54.304;8.826;2023-11-19T04:01:01;8.20;99.90
32769;DHT22;23049;54.304;8.826;2023-11-19T04:03:26;8.40;99.90
32769;DHT22;23049;54.304;8.826;2023-11-19T04:05:52;8.40;99.90
32769;DHT22;23049;54.304;8.826;2023-11-19T04:08:17;8.40;99.90
32769;DHT22;23049;54.304;8.826;2023-11-19T04:10:43;8.50;99.90
32769;DHT22;23049;54.304;8.826;2023-11-19T04:13:08;8.70;99.90
32769;DHT22;23049;54.304;8.826;2023-11-19T04:15:34;8.90;99.90
32769;DHT22;23049;54.304;8.826;2023-11-19T04:17:59;9.10;99.90
32769;DHT22;23049;54.304;8.826;2023-11-19T04:20:25;9.20;99.90
32769;DHT22;23049;54.304;8.826;2023-11-19T04:22:51;9.20;99.90
32769;DHT22;23049;54.304;8.826;2023-11-19T04:25:16;9.10;99.90
32769;DHT22;23049;54.304;8.826;2023-11-19T04:27:44;9.10;99.90
32769;DHT22;23049;54.304;8.826;2023-11-19T04:30:10;9.10;99.90
32769;DHT22;23049;54.304;8.826;2023-11-19T04:32:36;9.00;99.90
32769;DHT22;23049;54.304;8.826;2023-11-19T04:35:02;9.20;99.90
32769;DHT22;23049;54.304;8.826;2023-11-19T04:37:27;9.50;99.90
32769;DHT22;23049;54.304;8.826;2023-11-19T04:39:53;9.80;99.90
32769;DHT22;23049;54.304;8.826;2023-11-19T04:42:18;10.30;99.90
32769;DHT22;23049;54.304;8.826;2023-11-19T04:44:45;10.70;99.90
32769;DHT22;23049;54.304;8.826;2023-11-19T04:47:10;11.10;99.90
32769;DHT22;23049;54.304;8.826;2023-11-19T04:49:42;11.30;99.90
32769;DHT22;23049;54.304;8.826;2023-11-19T04:52:08;11.40;99.90
32769;DHT22;23049;54.304;8.826;2023-11-19T04:54:33;11.50;99.90
32769;DHT22;23049;54.304;8.826;2023-11-19T04:56:59;11.60;99.90
32769;DHT22;23049;54.304;8.826;2023-11-19T04:59:24;11.70;99.90
32769;DHT22;23049;54.304;8.826;2023-11-19T05:01:50;11.80;99.90
32769;DHT22;23049;54.304;8.826;2023-11-19T05:04:15;11.80;99.90
32769;DHT22;23049;54.304;8.826;2023-11-19T05:06:41;11.80;99.90
32769;DHT22;23049;54.304;8.826;2023-11-19T05:09:06;11.80;99.90
32769;DHT22;23049;54.304;8.826;2023-11-19T05:11:37;11.80;99.90
32769;DHT22;23049;54.304;8.826;2023-11-19T05:14:04;11.80;99.90
32769;DHT22;23049;54.304;8.826;2023-11-19T05:16:30;11.70;99.90
32769;DHT22;23049;54.304;8.826;2023-11-19T05:18:56;11.70;99.90
32769;DHT22;23049;54.304;8.826;2023-11-19T05:21:21;11.80;99.90
32769;DHT22;23049;54.304;8.826;2023-11-19T05:23:47;11.80;99.90
32769;DHT22;23049;54.304;8.826;2023-11-19T05:26:19;11.80;99.90
32769;DHT22;23049;54.304;8.826;2023-11-19T05:28:45;11.80;99.90
32769;DHT22;23049;54.304;8.826;2023-11-19T05:31:10;11.90;99.90
32769;DHT22;23049;54.304;8.826;2023-11-19T05:33:36;12.00;99.90
32769;DHT22;23049;54.304;8.826;2023-11-19T05:36:02;12.00;99.90
32769;DHT22;23049;54.304;8.826;2023-11-19T05:38:29;12.00;99.90
32769;DHT22;23049;54.304;8.826;2023-11-19T05:40:54;12.00;99.90
32769;DHT22;23049;54.304;8.826;2023-11-19T05:43:20;11.90;99.90
32769;DHT22;23049;54.304;8.826;2023-11-19T05:45:46;11.90;99.90
32769;DHT22;23049;54.304;8.826;2023-11-19T05:48:12;11.90;99.90
32769;DHT22;23049;54.304;8.826;2023-11-19T05:50:38;11.90;99.90
32769;DHT22;23049;54.304;8.826;2023-11-19T05:53:04;11.90;99.90
32769;DHT22;23049;54.304;8.826;2023-11-19T05:55:33;11.90;99.90
32769;DHT22;23049;54.304;8.826;2023-11-19T05:57:59;11.80;99.90
32769;DHT22;23049;54.304;8.826;2023-11-19T06:00:25;11.90;99.90
32769;DHT22;23049;54.304;8.826;2023-11-19T06:02:52;11.90;99.90
32769;DHT22;23049;54.304;8.826;2023-11-19T06:05:18;11.90;99.90
32769;DHT22;23049;54.304;8.826;2023-11-19T06:07:43;11.90;99.90
32769;DHT22;23049;54.304;8.826;2023-11-19T06:10:09;11.90;99.90
32769;DHT22;23049;54.304;8.826;2023-11-19T06:12:35;11.90;99.90
32769;DHT22;23049;54.304;8.826;2023-11-19T06:15:04;11.90;99.90
32769;DHT22;23049;54.304;8.826;2023-11-19T06:17:30;11.90;99.90
32769;DHT22;23049;54.304;8.826;2023-11-19T06:19:55;11.90;99.90
32769;DHT22;23049;54.304;8.826;2023-11-19T06:22:21;11.90;99.90
32769;DHT22;23049;54.304;8.826;2023-11-19T06:24:46;12.00;99.90
32769;DHT22;23049;54.304;8.826;2023-11-19T06:27:13;11.90;99.90
32769;DHT22;23049;54.304;8.826;2023-11-19T06:29:38;11.90;99.90
32769;DHT22;23049;54.304;8.826;2023-11-19T06:32:06;11.90;99.90
32769;DHT22;23049;54.304;8.826;2023-11-19T06:34:33;11.90;99.90
32769;DHT22;23049;54.304;8.826;2023-11-19T06:36:59;11.90;99.90
32769;DHT22;23049;54.304;8.826;2023-11-19T06:39:24;11.90;99.90
32769;DHT22;23049;54.304;8.826;2023-11-19T06:41:50;11.90;99.90
32769;DHT22;23049;54.304;8.826;2023-11-19T06:44:15;11.90;99.90
32769;DHT22;23049;54.304;8.826;2023-11-19T06:46:41;11.90;99.90
32769;DHT22;23049;54.304;8.826;2023-11-19T06:49:06;11.90;99.90
32769;DHT22;23049;54.304;8.826;2023-11-19T06:51:33;11.80;99.90
32769;DHT22;23049;54.304;8.826;2023-11-19T06:53:59;11.80;99.90
32769;DHT22;23049;54.304;8.826;2023-11-19T06:56:24;11.80;99.90
32769;DHT22;23049;54.304;8.826;2023-11-19T06:58:50;11.80;99.90
32769;DHT22;23049;54.304;8.826;2023-11-19T07:01:16;11.80;99.90
32769;DHT22;23049;54.304;8.826;2023-11-19T07:03:46;11.80;99.90
32769;DHT22;23049;54.304;8.826;2023-11-19T07:06:12;11.80;99.90
32769;DHT22;23049;54.304;8.826;2023-11-19T07:08:43;11.90;99.90
32769;DHT22;23049;54.304;8.826;2023-11-19T07:11:10;11.90;99.90
32769;DHT22;23049;54.304;8.826;2023-11-19T07:13:37;11.90;99.90
32769;DHT22;23049;54.304;8.826;2023-11-19T07:16:02;11.90;99.90
32769;DHT22;23049;54.304;8.826;2023-11-19T07:18:29;11.90;99.90
32769;DHT22;23049;54.304;8.826;2023-11-19T07:20:54;11.80;99.90
32769;DHT22;23049;54.304;8.826;2023-11-19T07:23:20;11.90;99.90
32769;DHT22;23049;54.304;8.826;2023-11-19T07:25:46;11.90;99.90
32769;DHT22;23049;54.304;8.826;2023-11-19T07:28:12;11.90;99.90
32769;DHT22;23049;54.304;8.826;2023-11-19T07:30:38;11.90;99.90
32769;DHT22;23049;54.304;8.826;2023-11-19T07:33:04;12.00;99.90
32769;DHT22;23049;54.304;8.826;2023-11-19T07:35:29;12.00;99.90
32769;DHT22;23049;54.304;8.826;2023-11-19T07:37:58;11.90;99.90
32769;DHT22;23049;54.304;8.826;2023-11-19T07:40:23;11.90;99.90
32769;DHT22;23049;54.304;8.826;2023-11-19T07:42:49;11.90;99.90
32769;DHT22;23049;54.304;8.826;2023-11-19T07:45:15;11.90;99.90
32769;DHT22;23049;54.304;8.826;2023-11-19T07:47:41;11.90;99.90
32769;DHT22;23049;54.304;8.826;2023-11-19T07:50:10;11.80;99.90
32769;DHT22;23049;54.304;8.826;2023-11-19T07:52:35;11.80;99.90
32769;DHT22;23049;54.304;8.826;2023-11-19T07:55:01;11.80;99.90
32769;DHT22;23049;54.304;8.826;2023-11-19T07:57:27;11.90;99.90
32769;DHT22;23049;54.304;8.826;2023-11-19T07:59:56;11.80;99.90
32769;DHT22;23049;54.304;8.826;2023-11-19T08:02:21;11.90;99.90
32769;DHT22;23049;54.304;8.826;2023-11-19T08:04:49;11.90;99.90
32769;DHT22;23049;54.304;8.826;2023-11-19T08:07:17;11.90;99.90
32769;DHT22;23049;54.304;8.826;2023-11-19T08:09:43;11.90;99.90
32769;DHT22;23049;54.304;8.826;2023-11-19T08:12:09;12.00;99.90
32769;DHT22;23049;54.304;8.826;2023-11-19T08:14:34;12.10;99.90
32769;DHT22;23049;54.304;8.826;2023-11-19T08:17:00;12.10;99.90
32769;DHT22;23049;54.304;8.826;2023-11-19T08:19:26;12.20;99.90
32769;DHT22;23049;54.304;8.826;2023-11-19T08:21:51;12.10;99.90
32769;DHT22;23049;54.304;8.826;2023-11-19T08:24:17;12.10;99.90
32769;DHT22;23049;54.304;8.826;2023-11-19T08:26:43;12.00;99.90
32769;DHT22;23049;54.304;8.826;2023-11-19T08:29:08;12.00;99.90
32769;DHT22;23049;54.304;8.826;2023-11-19T08:31:34;12.00;99.90
32769;DHT22;23049;54.304;8.826;2023-11-19T08:34:00;12.00;99.90
32769;DHT22;23049;54.304;8.826;2023-11-19T08:36:26;12.00;99.90
32769;DHT22;23049;54.304;8.826;2023-11-19T08:38:53;12.10;99.90
32769;DHT22;23049;54.304;8.826;2023-11-19T08:41:18;12.10;99.90
32769;DHT22;23049;54.304;8.826;2023-11-19T08:43:44;12.10;99.90
32769;DHT22;23049;54.304;8.826;2023-11-19T08:46:10;12.10;99.90
32769;DHT22;23049;54.304;8.826;2023-11-19T08:48:36;12.20;99.90
32769;DHT22;23049;54.304;8.826;2023-11-19T08:51:01;12.10;99.90
32769;DHT22;23049;54.304;8.826;2023-11-19T08:53:27;12.00;99.90
32769;DHT22;23049;54.304;8.826;2023-11-19T08:55:53;12.10;99.90
32769;DHT22;23049;54.304;8.826;2023-11-19T08:58:18;12.10;99.90
32769;DHT22;23049;54.304;8.826;2023-11-19T09:00:43;12.20;99.90
32769;DHT22;23049;54.304;8.826;2023-11-19T09:03:09;12.30;99.90
32769;DHT22;23049;54.304;8.826;2023-11-19T09:05:34;12.30;99.90
32769;DHT22;23049;54.304;8.826;2023-11-19T09:08:00;12.40;99.90
32769;DHT22;23049;54.304;8.826;2023-11-19T09:10:25;12.40;99.90
32769;DHT22;23049;54.304;8.826;2023-11-19T09:12:52;12.40;99.90
32769;DHT22;23049;54.304;8.826;2023-11-19T09:15:17;12.40;99.90
32769;DHT22;23049;54.304;8.826;2023-11-19T09:17:43;12.40;99.90
32769;DHT22;23049;54.304;8.826;2023-11-19T09:20:09;12.50;99.90
32769;DHT22;23049;54.304;8.826;2023-11-19T09:22:37;12.50;99.90
32769;DHT22;23049;54.304;8.826;2023-11-19T09:25:03;12.50;99.90
32769;DHT22;23049;54.304;8.826;2023-11-19T09:27:30;12.60;99.90
32769;DHT22;23049;54.304;8.826;2023-11-19T09:29:55;12.60;99.90
32769;DHT22;23049;54.304;8.826;2023-11-19T09:32:23;12.70;99.90
32769;DHT22;23049;54.304;8.826;2023-11-19T09:34:49;12.60;99.90
32769;DHT22;23049;54.304;8.826;2023-11-19T09:37:14;12.50;99.90
32769;DHT22;23049;54.304;8.826;2023-11-19T09:39:40;12.50;99.90
32769;DHT22;23049;54.304;8.826;2023-11-19T09:42:09;12.50;99.90
32769;DHT22;23049;54.304;8.826;2023-11-19T09:44:34;12.50;99.90
32769;DHT22;23049;54.304;8.826;2023-11-19T09:47:00;12.60;99.90
32769;DHT22;23049;54.304;8.826;2023-11-19T09:49:26;12.70;99.90
32769;DHT22;23049;54.304;8.826;2023-11-19T09:51:51;12.70;99.90
32769;DHT22;23049;54.304;8.826;2023-11-19T09:54:17;12.70;99.90
32769;DHT22;23049;54.304;8.826;2023-11-19T09:56:42;12.80;99.90
32769;DHT22;23049;54.304;8.826;2023-11-19T09:59:09;12.70;99.90
32769;DHT22;23049;54.304;8.826;2023-11-19T10:01:36;12.70;99.90
32769;DHT22;23049;54.304;8.826;2023-11-19T10:04:02;12.60;99.90
32769;DHT22;23049;54.304;8.826;2023-11-19T10:06:28;12.50;99.90
32769;DHT22;23049;54.304;8.826;2023-11-19T10:08:54;12.50;99.90
32769;DHT22;23049;54.304;8.826;2023-11-19T10:11:20;12.50;99.90
32769;DHT22;23049;54.304;8.826;2023-11-19T10:13:46;12.40;99.90
32769;DHT22;23049;54.304;8.826;2023-11-19T10:16:13;12.50;99.90
32769;DHT22;23049;54.304;8.826;2023-11-19T10:18:48;12.50;99.90
32769;DHT22;23049;54.304;8.826;2023-11-19T10:21:17;12.60;99.90
32769;DHT22;23049;54.304;8.826;2023-11-19T10:23:50;12.60;99.90
32769;DHT22;23049;54.304;8.826;2023-11-19T10:26:17;12.60;99.90
32769;DHT22;23049;54.304;8.826;2023-11-19T10:28:43;12.60;99.90
32769;DHT22;23049;54.304;8.826;2023-11-19T10:31:12;12.60;99.90
32769;DHT22;23049;54.304;8.826;2023-11-19T10:33:38;12.60;99.90
32769;DHT22;23049;54.304;8.826;2023-11-19T10:36:03;12.60;99.90
32769;DHT22;23049;54.304;8.826;2023-11-19T10:38:29;12.50;99.90
32769;DHT22;23049;54.304;8.826;2023-11-19T10:40:55;12.60;99.90
32769;DHT22;23049;54.304;8.826;2023-11-19T10:43:21;12.60;99.90
32769;DHT22;23049;54.304;8.826;2023-11-19T10:45:50;12.70;99.90
32769;DHT22;23049;54.304;8.826;2023-11-19T10:48:15;12.70;99.90
32769;DHT22;23049;54.304;8.826;2023-11-19T10:50:42;12.70;99.90
32769;DHT22;23049;54.304;8.826;2023-11-19T10:53:08;12.80;99.90
32769;DHT22;23049;54.304;8.826;2023-11-19T10:55:34;12.80;99.90
32769;DHT22;23049;54.304;8.826;2023-11-19T10:58:01;12.80;99.90
32769;DHT22;23049;54.304;8.826;2023-11-19T11:00:30;12.70;99.90
32769;DHT22;23049;54.304;8.826;2023-11-19T11:03:02;12.70;99.90
32769;DHT22;23049;54.304;8.826;2023-11-19T11:05:33;12.70;99.90
32769;DHT22;23049;54.304;8.826;2023-11-19T11:08:00;12.70;99.90
32769;DHT22;23049;54.304;8.826;2023-11-19T11:10:26;12.70;99.90
32769;DHT22;23049;54.304;8.826;2023-11-19T11:12:51;12.70;99.90
32769;DHT22;23049;54.304;8.826;2023-11-19T11:15:21;12.60;99.90
32769;DHT22;23049;54.304;8.826;2023-11-19T11:17:47;12.60;99.90
32769;DHT22;23049;54.304;8.826;2023-11-19T11:20:13;12.60;99.90
32769;DHT22;23049;54.304;8.826;2023-11-19T11:22:46;12.60;99.90
32769;DHT22;23049;54.304;8.826;2023-11-19T11:25:30;12.60;99.90
32769;DHT22;23049;54.304;8.826;2023-11-19T11:28:20;12.50;99.90
32769;DHT22;23049;54.304;8.826;2023-11-19T11:30:55;12.50;99.90
32769;DHT22;23049;54.304;8.826;2023-11-19T11:33:29;12.40;99.90
32769;DHT22;23049;54.304;8.826;2023-11-19T11:38:30;12.50;99.90
32769;DHT22;23049;54.304;8.826;2023-11-19T11:43:46;12.60;99.90
32769;DHT22;23049;54.304;8.826;2023-11-19T11:49:05;12.80;99.90
32769;DHT22;23049;54.304;8.826;2023-11-19T11:54:30;12.50;99.90
32769;DHT22;23049;54.304;8.826;2023-11-19T11:59:31;12.30;99.90
32769;DHT22;23049;54.304;8.826;2023-11-19T12:02:00;12.30;99.90
32769;DHT22;23049;54.304;8.826;2023-11-19T12:04:26;12.30;99.90
32769;DHT22;23049;54.304;8.826;2023-11-19T12:07:05;12.30;99.90
32769;DHT22;23049;54.304;8.826;2023-11-19T12:09:31;12.30;99.90
32769;DHT22;23049;54.304;8.826;2023-11-19T12:20:02;12.50;99.90
32769;DHT22;23049;54.304;8.826;2023-11-19T12:22:27;12.50;99.90
32769;DHT22;23049;54.304;8.826;2023-11-19T12:24:56;12.40;99.90
32769;DHT22;23049;54.304;8.826;2023-11-19T12:27:22;12.30;99.90
32769;DHT22;23049;54.304;8.826;2023-11-19T12:29:48;12.20;99.90
32769;DHT22;23049;54.304;8.826;2023-11-19T12:32:14;12.20;99.90
32769;DHT22;23049;54.304;8.826;2023-11-19T12:34:39;12.20;99.90
32769;DHT22;23049;54.304;8.826;2023-11-19T12:37:05;12.20;99.90
32769;DHT22;23049;54.304;8.826;2023-11-19T12:39:31;12.30;99.90
32769;DHT22;23049;54.304;8.826;2023-11-19T12:41:57;12.30;99.90
32769;DHT22;23049;54.304;8.826;2023-11-19T12:44:26;12.40;99.90
32769;DHT22;23049;54.304;8.826;2023-11-19T12:47:01;12.50;99.90
32769;DHT22;23049;54.304;8.826;2023-11-19T12:49:27;12.60;99.90
32769;DHT22;23049;54.304;8.826;2023-11-19T12:51:53;12.60;99.90
32769;DHT22;23049;54.304;8.826;2023-11-19T12:54:18;12.50;99.90
32769;DHT22;23049;54.304;8.826;2023-11-19T12:56:53;12.40;99.90
32769;DHT22;23049;54.304;8.826;2023-11-19T12:59:19;12.30;99.90
32769;DHT22;23049;54.304;8.826;2023-11-19T13:01:57;12.20;99.90
32769;DHT22;23049;54.304;8.826;2023-11-19T13:04:23;12.10;99.90
32769;DHT22;23049;54.304;8.826;2023-11-19T13:06:49;12.00;99.90
32769;DHT22;23049;54.304;8.826;2023-11-19T13:09:27;12.00;99.90
32769;DHT22;23049;54.304;8.826;2023-11-19T13:11:54;12.00;99.90
32769;DHT22;23049;54.304;8.826;2023-11-19T13:14:20;12.00;99.90
32769;DHT22;23049;54.304;8.826;2023-11-19T13:16:46;11.90;99.90
32769;DHT22;23049;54.304;8.826;2023-11-19T13:19:15;11.90;99.90
32769;DHT22;23049;54.304;8.826;2023-11-19T13:21:47;11.90;99.90
32769;DHT22;23049;54.304;8.826;2023-11-19T13:24:13;11.90;99.90
32769;DHT22;23049;54.304;8.826;2023-11-19T13:26:39;11.90;99.90
32769;DHT22;23049;54.304;8.826;2023-11-19T13:29:04;11.90;99.90
32769;DHT22;23049;54.304;8.826;2023-11-19T13:31:30;11.90;99.90
32769;DHT22;23049;54.304;8.826;2023-11-19T13:33:59;11.90;99.90
32769;DHT22;23049;54.304;8.826;2023-11-19T13:36:24;11.80;99.90
32769;DHT22;23049;54.304;8.826;2023-11-19T13:38:51;11.80;99.90
32769;DHT22;23049;54.304;8.826;2023-11-19T13:41:17;11.80;99.90
32769;DHT22;23049;54.304;8.826;2023-11-19T13:43:43;11.80;99.90
32769;DHT22;23049;54.304;8.826;2023-11-19T13:46:09;11.80;99.90
32769;DHT22;23049;54.304;8.826;2023-11-19T13:48:35;11.80;99.90
32769;DHT22;23049;54.304;8.826;2023-11-19T13:51:00;11.90;99.90
32769;DHT22;23049;54.304;8.826;2023-11-19T13:53:26;11.90;99.90
32769;DHT22;23049;54.304;8.826;2023-11-19T13:55:52;11.90;99.90
32769;DHT22;23049;54.304;8.826;2023-11-19T13:58:19;11.90;99.90
32769;DHT22;23049;54.304;8.826;2023-11-19T14:00:46;11.90;99.90
32769;DHT22;23049;54.304;8.826;2023-11-19T14:03:11;11.90;99.90
32769;DHT22;23049;54.304;8.826;2023-11-19T14:05:37;11.80;99.90
32769;DHT22;23049;54.304;8.826;2023-11-19T14:08:03;11.80;99.90
32769;DHT22;23049;54.304;8.826;2023-11-19T14:10:28;11.70;99.90
32769;DHT22;23049;54.304;8.826;2023-11-19T14:12:54;11.70;99.90
32769;DHT22;23049;54.304;8.826;2023-11-19T14:15:20;11.70;99.90
32769;DHT22;23049;54.304;8.826;2023-11-19T14:17:45;11.70;99.90
32769;DHT22;23049;54.304;8.826;2023-11-19T14:20:11;11.70;99.90
32769;DHT22;23049;54.304;8.826;2023-11-19T14:22:41;11.60;99.90
32769;DHT22;23049;54.304;8.826;2023-11-19T14:25:08;11.60;99.90
32769;DHT22;23049;54.304;8.826;2023-11-19T14:27:39;11.60;99.90
32769;DHT22;23049;54.304;8.826;2023-11-19T14:30:05;11.70;99.90
32769;DHT22;23049;54.304;8.826;2023-11-19T14:32:31;11.70;99.90
32769;DHT22;23049;54.304;8.826;2023-11-19T14:34:57;11.70;99.90
32769;DHT22;23049;54.304;8.826;2023-11-19T14:37:23;11.80;99.90
32769;DHT22;23049;54.304;8.826;2023-11-19T14:39:48;11.80;99.90
32769;DHT22;23049;54.304;8.826;2023-11-19T14:42:16;11.80;99.90
32769;DHT22;23049;54.304;8.826;2023-11-19T14:44:42;11.80;99.90
32769;DHT22;23049;54.304;8.826;2023-11-19T14:47:09;11.70;99.90
32769;DHT22;23049;54.304;8.826;2023-11-19T14:49:36;11.60;99.90
32769;DHT22;23049;54.304;8.826;2023-11-19T14:52:04;11.60;99.90
32769;DHT22;23049;54.304;8.826;2023-11-19T14:54:32;11.60;99.90
32769;DHT22;23049;54.304;8.826;2023-11-19T14:56:59;11.70;99.90
32769;DHT22;23049;54.304;8.826;2023-11-19T14:59:25;11.70;99.90
32769;DHT22;23049;54.304;8.826;2023-11-19T15:01:51;11.70;99.90
32769;DHT22;23049;54.304;8.826;2023-11-19T15:04:19;11.70;99.90
32769;DHT22;23049;54.304;8.826;2023-11-19T15:06:44;11.60;99.90
32769;DHT22;23049;54.304;8.826;2023-11-19T15:09:10;11.60;99.90
32769;DHT22;23049;54.304;8.826;2023-11-19T15:11:42;11.50;99.90
32769;DHT22;23049;54.304;8.826;2023-11-19T15:14:08;11.50;99.90
32769;DHT22;23049;54.304;8.826;2023-11-19T15:16:34;11.50;99.90
32769;DHT22;23049;54.304;8.826;2023-11-19T15:19:00;11.50;99.90
32769;DHT22;23049;54.304;8.826;2023-11-19T15:21:29;11.50;99.90
32769;DHT22;23049;54.304;8.826;2023-11-19T15:23:58;11.50;99.90
32769;DHT22;23049;54.304;8.826;2023-11-19T15:26:24;11.50;99.90
32769;DHT22;23049;54.304;8.826;2023-11-19T15:28:52;11.50;99.90
32769;DHT22;23049;54.304;8.826;2023-11-19T15:31:22;11.40;99.90
32769;DHT22;23049;54.304;8.826;2023-11-19T15:33:47;11.40;99.90
32769;DHT22;23049;54.304;8.826;2023-11-19T15:36:13;11.30;99.90
32769;DHT22;23049;54.304;8.826;2023-11-19T15:38:39;11.30;99.90
32769;DHT22;23049;54.304;8.826;2023-11-19T15:41:05;11.20;99.90
32769;DHT22;23049;54.304;8.826;2023-11-19T15:43:33;11.20;99.90
32769;DHT22;23049;54.304;8.826;2023-11-19T15:45:58;11.30;99.90
32769;DHT22;23049;54.304;8.826;2023-11-19T15:48:24;11.20;99.90
32769;DHT22;23049;54.304;8.826;2023-11-19T15:50:51;11.20;99.90
32769;DHT22;23049;54.304;8.826;2023-11-19T15:53:18;11.30;99.90